createdAt,value
2022-08-10T00:03:41.599Z,36.73
2022-08-10T00:08:43.414Z,36.77
2022-08-10T00:13:44.843Z,37.11
2022-08-10T00:18:46.181Z,36.98
2022-08-10T00:23:47.503Z,36.97
2022-08-10T00:28:48.847Z,37.58
2022-08-10T00:33:50.197Z,37.50
2022-08-10T00:38:51.499Z,37.65
2022-08-10T00:43:52.836Z,38.49
2022-08-10T00:49:00.272Z,38.03
2022-08-10T00:54:02.197Z,39.05
2022-08-10T00:59:03.733Z,38.78
2022-08-10T01:04:54.451Z,38.89
2022-08-10T01:09:28.752Z,38.32
2022-08-10T01:14:54.880Z,38.70
2022-08-10T01:20:06.412Z,38.31
2022-08-10T01:25:28.842Z,38.73
2022-08-10T01:30:32.822Z,38.58
2022-08-10T01:35:50.173Z,38.98
2022-08-10T01:41:02.314Z,38.79
2022-08-10T01:46:05.951Z,38.68
2022-08-10T01:51:22.025Z,39.00
2022-08-10T01:56:25.160Z,39.02
2022-08-10T02:01:32.383Z,38.85
2022-08-10T02:06:39.826Z,38.91
2022-08-10T02:12:05.339Z,39.31
2022-08-10T02:17:58.153Z,39.35
2022-08-10T02:22:40.317Z,39.31
2022-08-10T02:27:43.490Z,39.67
2022-08-10T02:32:52.764Z,39.91
2022-08-10T02:37:59.694Z,39.99
2022-08-10T02:45:22.325Z,40.24
2022-08-10T02:48:47.126Z,39.82
2022-08-10T02:53:56.994Z,40.19
2022-08-10T02:59:06.931Z,40.33
2022-08-10T03:04:56.022Z,40.73
2022-08-10T03:09:47.349Z,40.69
2022-08-10T03:14:50.510Z,40.30
2022-08-10T03:20:34.422Z,40.98
2022-08-10T03:25:15.542Z,41.30
2022-08-10T03:30:23.412Z,40.69
2022-08-10T03:35:35.102Z,41.31
2022-08-10T03:40:46.109Z,40.97
2022-08-10T03:45:57.686Z,41.20
2022-08-10T03:51:01.160Z,41.41
2022-08-10T03:56:28.333Z,41.68
2022-08-10T04:02:46.580Z,41.47
2022-08-10T04:06:46.443Z,41.90
2022-08-10T04:11:52.673Z,42.05
2022-08-10T04:16:54.356Z,42.16
2022-08-10T04:22:07.471Z,41.73
2022-08-10T04:27:09.450Z,42.11
2022-08-10T04:32:12.775Z,41.92
2022-08-10T04:37:15.926Z,41.88
2022-08-10T04:42:18.261Z,41.92
2022-08-10T04:47:57.896Z,42.06
2022-08-10T04:52:41.059Z,42.01
2022-08-10T04:57:42.631Z,41.92
2022-08-10T05:02:44.025Z,42.47
2022-08-10T05:07:53.977Z,42.97
2022-08-10T05:12:58.571Z,42.60
2022-08-10T05:18:06.051Z,42.96
2022-08-10T05:23:12.664Z,42.78
2022-08-10T05:28:14.089Z,42.47
2022-08-10T05:33:15.406Z,42.93
2022-08-10T05:38:18.352Z,42.30
2022-08-10T05:43:21.580Z,42.52
2022-08-10T05:48:55.530Z,41.68
2022-08-10T05:54:01.258Z,42.30
2022-08-10T05:59:04.813Z,42.53
2022-08-10T06:04:08.102Z,41.31
2022-08-10T06:09:11.607Z,41.90
2022-08-10T06:14:34.737Z,43.27
2022-08-10T06:19:39.564Z,42.51
2022-08-10T06:25:12.272Z,41.75
2022-08-10T06:30:20.909Z,43.49
2022-08-10T06:35:27.214Z,41.77
2022-08-10T06:40:34.985Z,40.62
2022-08-10T06:46:07.410Z,40.58
2022-08-10T06:51:17.942Z,40.57
2022-08-10T06:56:35.909Z,39.64
2022-08-10T07:01:43.527Z,39.40
2022-08-10T07:06:55.111Z,38.59
2022-08-10T07:12:08.650Z,38.56
2022-08-10T07:17:17.285Z,37.79
2022-08-10T07:23:01.711Z,37.72
2022-08-10T07:27:58.630Z,36.79
2022-08-10T07:33:02.825Z,36.09
2022-08-10T07:38:07.623Z,35.35
2022-08-10T07:43:10.903Z,35.21
2022-08-10T07:48:17.288Z,34.91
2022-08-10T07:53:23.394Z,35.03
2022-08-10T07:58:34.346Z,34.32
2022-08-10T08:03:36.562Z,33.69
2022-08-10T08:08:40.579Z,33.88
2022-08-10T08:13:43.397Z,33.46
2022-08-10T08:19:04.009Z,32.71
2022-08-10T08:24:31.054Z,33.22
2022-08-10T08:29:35.229Z,32.73
2022-08-10T08:34:42.406Z,32.26
2022-08-10T08:39:46.202Z,32.02
2022-08-10T08:45:10.458Z,31.67
2022-08-10T08:50:31.107Z,31.40
2022-08-10T08:56:03.574Z,31.05
2022-08-10T09:01:14.759Z,30.54
2022-08-10T09:06:28.852Z,29.85
2022-08-10T09:11:59.145Z,30.78
2022-08-10T09:17:08.276Z,30.08
2022-08-10T09:22:25.958Z,30.48
2022-08-10T09:27:52.404Z,29.79
2022-08-10T09:36:26.375Z,28.22
2022-08-10T09:38:51.246Z,27.54
2022-08-10T09:44:15.072Z,26.41
2022-08-10T09:49:53.291Z,26.35
2022-08-10T09:55:14.660Z,27.32
2022-08-10T10:00:20.355Z,23.30
2022-08-10T10:05:33.145Z,24.69
2022-08-10T10:11:02.682Z,24.36
2022-08-10T10:16:41.202Z,24.18
2022-08-10T10:21:54.146Z,23.51
2022-08-10T10:27:03.645Z,21.96
2022-08-10T10:32:15.673Z,19.26
2022-08-10T10:37:20.641Z,16.52
2022-08-10T10:42:50.343Z,16.46
2022-08-10T10:48:24.347Z,17.26
2022-08-10T10:53:49.298Z,17.49
2022-08-10T10:59:55.364Z,17.26
2022-08-10T11:04:52.902Z,16.60
2022-08-10T11:10:12.287Z,17.61
2022-08-10T11:15:48.292Z,17.02
2022-08-10T11:21:10.585Z,18.33
2022-08-10T11:26:28.969Z,16.36
2022-08-10T11:32:02.240Z,17.48
2022-08-10T11:37:21.984Z,16.33
2022-08-10T11:42:36.389Z,15.78
2022-08-10T11:47:50.543Z,16.94
2022-08-10T11:53:05.405Z,17.40
2022-08-10T11:58:31.620Z,16.79
2022-08-10T12:03:35.985Z,17.27
2022-08-10T12:10:03.934Z,17.25
2022-08-10T12:14:28.864Z,16.96
2022-08-10T12:20:02.239Z,17.48
2022-08-10T12:25:11.559Z,16.88
2022-08-10T12:30:38.415Z,17.78
2022-08-10T12:36:18.625Z,17.49
2022-08-10T12:41:44.809Z,18.13
2022-08-10T12:46:46.776Z,18.15
2022-08-10T12:52:00.342Z,17.63
2022-08-10T12:57:08.911Z,18.18
2022-08-10T13:02:18.688Z,18.75
2022-08-10T13:08:03.958Z,18.33
2022-08-10T13:12:56.744Z,18.64
2022-08-10T13:18:01.145Z,18.08
2022-08-10T13:23:11.170Z,18.60
2022-08-10T13:28:37.085Z,19.10
2022-08-10T13:34:40.734Z,18.35
2022-08-10T13:39:10.554Z,18.89
2022-08-10T13:44:15.519Z,19.52
2022-08-10T13:49:19.056Z,18.70
2022-08-10T13:54:24.735Z,19.42
2022-08-10T14:00:33.885Z,19.02
2022-08-10T14:04:54.185Z,18.93
2022-08-10T14:10:01.244Z,18.21
2022-08-10T14:15:07.394Z,18.18
2022-08-10T14:20:14.014Z,17.91
2022-08-10T14:25:17.399Z,18.18
2022-08-10T14:30:18.930Z,18.18
2022-08-10T14:36:18.772Z,18.68
2022-08-10T14:40:50.188Z,19.05
2022-08-10T14:46:05.620Z,19.08
2022-08-10T14:51:09.082Z,19.30
2022-08-10T14:56:16.333Z,19.75
2022-08-10T15:01:20.370Z,19.83
2022-08-10T15:06:30.576Z,20.00
2022-08-10T15:12:14.355Z,20.09
2022-08-10T15:16:59.533Z,20.01
2022-08-10T15:22:13.322Z,19.62
2022-08-10T15:27:27.496Z,19.71
2022-08-10T15:33:12.766Z,19.68
2022-08-10T15:38:21.397Z,20.45
2022-08-10T15:43:36.926Z,20.66
2022-08-10T15:49:25.728Z,20.67
2022-08-10T15:54:38.057Z,20.49
2022-08-10T15:59:43.193Z,20.86
2022-08-10T16:04:57.399Z,20.45
2022-08-10T16:10:24.453Z,20.80
2022-08-10T16:15:30.606Z,21.03
2022-08-10T16:20:53.527Z,20.90
2022-08-10T16:26:15.265Z,20.56
2022-08-10T16:31:24.813Z,20.93
2022-08-10T16:36:40.787Z,20.99
2022-08-10T16:42:02.914Z,20.96
2022-08-10T16:47:08.534Z,21.31
2022-08-10T16:52:11.332Z,21.26
2022-08-10T16:57:14.629Z,21.40
2022-08-10T17:02:18.379Z,21.31
2022-08-10T17:07:30.646Z,21.85
2022-08-10T17:12:34.612Z,21.67
2022-08-10T17:17:46.680Z,21.71
2022-08-10T17:22:54.627Z,21.84
2022-08-10T17:28:05.634Z,21.76
2022-08-10T17:33:13.579Z,22.08
2022-08-10T17:38:23.781Z,22.81
2022-08-10T17:43:46.331Z,22.51
2022-08-10T17:48:48.177Z,22.76
2022-08-10T17:53:52.475Z,23.13
2022-08-10T17:58:59.081Z,22.79
2022-08-10T18:04:05.218Z,22.92
2022-08-10T18:09:12.451Z,22.89
2022-08-10T18:14:16.624Z,23.03
2022-08-10T18:19:18.118Z,22.98
2022-08-10T18:24:21.166Z,23.22
2022-08-10T18:29:27.549Z,23.62
2022-08-10T18:34:32.622Z,23.60
2022-08-10T18:39:37.662Z,23.48
2022-08-10T18:44:44.707Z,23.73
2022-08-10T18:49:59.701Z,24.48
2022-08-10T18:55:24.513Z,25.20
2022-08-10T19:01:04.772Z,25.92
2022-08-10T19:06:19.136Z,26.08
2022-08-10T19:11:47.863Z,25.47
2022-08-10T19:18:03.619Z,25.68
2022-08-10T19:23:09.125Z,25.75
2022-08-10T19:28:16.708Z,26.90
2022-08-10T19:33:44.113Z,27.04
2022-08-10T19:39:13.346Z,27.35
2022-08-10T19:44:35.506Z,27.24
2022-08-10T19:50:04.348Z,28.00
2022-08-10T19:55:33.588Z,27.93
2022-08-10T20:00:41.002Z,27.64
2022-08-10T20:06:18.539Z,28.55
2022-08-10T20:11:45.173Z,28.47
2022-08-10T20:16:48.747Z,32.25
2022-08-10T20:21:59.336Z,30.13
2022-08-10T20:27:43.549Z,29.78
2022-08-10T20:32:55.307Z,29.64
2022-08-10T20:38:09.272Z,30.49
2022-08-10T20:43:24.206Z,29.68
2022-08-10T20:48:37.946Z,31.42
2022-08-10T20:53:46.751Z,30.93
2022-08-10T20:59:28.961Z,31.15
2022-08-10T21:04:51.320Z,31.37
2022-08-10T21:09:52.566Z,31.96
2022-08-10T21:15:07.075Z,31.34
2022-08-10T21:20:19.172Z,31.32
2022-08-10T21:25:42.747Z,30.77
2022-08-10T21:30:51.146Z,31.30
2022-08-10T21:36:02.263Z,32.11
2022-08-10T21:41:58.011Z,31.76
2022-08-10T21:47:39.570Z,32.11
2022-08-10T21:53:22.366Z,32.14
2022-08-10T21:59:21.488Z,32.38
2022-08-10T22:04:45.581Z,32.28
2022-08-10T22:10:08.752Z,32.44
2022-08-10T22:21:45.714Z,32.31
2022-08-10T22:27:46.691Z,32.57
2022-08-10T22:31:28.510Z,32.11
2022-08-10T22:33:22.701Z,32.81
2022-08-10T22:40:11.061Z,33.05
2022-08-10T22:45:05.765Z,32.92
2022-08-10T22:50:10.475Z,33.00
2022-08-10T22:55:42.812Z,33.25
2022-08-10T23:01:11.924Z,33.79
2022-08-10T23:06:19.645Z,33.55
2022-08-10T23:11:32.597Z,33.89
2022-08-10T23:17:14.003Z,33.33
2022-08-10T23:22:19.393Z,34.09
2022-08-10T23:27:38.264Z,34.57
2022-08-10T23:32:47.756Z,33.87
2022-08-10T23:37:54.995Z,34.05
2022-08-10T23:42:58.118Z,33.78
2022-08-10T23:48:00.252Z,33.66
2022-08-10T23:53:13.638Z,33.93
2022-08-10T23:58:33.654Z,33.93
